sensor_id;sensor_type;location;lat;lon;timestamp;P1;durP1;ratioP1;P2;durP2;ratioP2
24206;SDS011;12351;52.284;9.160;2023-05-16T00:00:43;8.40;;;6.10;;
24206;SDS011;12351;52.284;9.160;2023-05-16T00:03:33;7.40;;;6.45;;
24206;SDS011;12351;52.284;9.160;2023-05-16T00:06:23;9.13;;;6.25;;
24206;SDS011;12351;52.284;9.160;2023-05-16T00:09:11;8.60;;;5.90;;
24206;SDS011;12351;52.284;9.160;2023-05-16T00:11:58;7.83;;;5.40;;
24206;SDS011;12351;52.284;9.160;2023-05-16T00:14:46;8.65;;;5.20;;
24206;SDS011;12351;52.284;9.160;2023-05-16T00:17:36;6.03;;;4.62;;
24206;SDS011;12351;52.284;9.160;2023-05-16T00:20:26;6.55;;;4.53;;
24206;SDS011;12351;52.284;9.160;2023-05-16T00:23:15;6.67;;;4.10;;
24206;SDS011;12351;52.284;9.160;2023-05-16T00:26:04;5.83;;;4.35;;
24206;SDS011;12351;52.284;9.160;2023-05-16T00:28:52;7.58;;;4.58;;
24206;SDS011;12351;52.284;9.160;2023-05-16T00:31:39;6.30;;;4.67;;
24206;SDS011;12351;52.284;9.160;2023-05-16T00:34:27;6.05;;;4.40;;
24206;SDS011;12351;52.284;9.160;2023-05-16T00:37:15;8.75;;;4.67;;
24206;SDS011;12351;52.284;9.160;2023-05-16T00:40:03;6.47;;;4.58;;
24206;SDS011;12351;52.284;9.160;2023-05-16T00:42:52;7.42;;;4.87;;
24206;SDS011;12351;52.284;9.160;2023-05-16T00:45:39;6.17;;;5.17;;
24206;SDS011;12351;52.284;9.160;2023-05-16T00:48:28;6.62;;;4.40;;
24206;SDS011;12351;52.284;9.160;2023-05-16T00:51:16;6.17;;;4.35;;
24206;SDS011;12351;52.284;9.160;2023-05-16T00:54:04;7.85;;;4.55;;
24206;SDS011;12351;52.284;9.160;2023-05-16T00:56:53;4.75;;;4.25;;
24206;SDS011;12351;52.284;9.160;2023-05-16T00:59:41;6.67;;;4.87;;
24206;SDS011;12351;52.284;9.160;2023-05-16T01:02:31;9.35;;;4.72;;
24206;SDS011;12351;52.284;9.160;2023-05-16T01:05:22;7.40;;;4.35;;
24206;SDS011;12351;52.284;9.160;2023-05-16T01:08:09;9.58;;;4.67;;
24206;SDS011;12351;52.284;9.160;2023-05-16T01:10:59;7.50;;;4.95;;
24206;SDS011;12351;52.284;9.160;2023-05-16T01:28:03;6.15;;;3.90;;
24206;SDS011;12351;52.284;9.160;2023-05-16T01:30:52;4.65;;;3.60;;
24206;SDS011;12351;52.284;9.160;2023-05-16T01:33:40;4.80;;;3.47;;
24206;SDS011;12351;52.284;9.160;2023-05-16T01:47:29;5.92;;;3.20;;
24206;SDS011;12351;52.284;9.160;2023-05-16T01:50:19;5.47;;;3.55;;
24206;SDS011;12351;52.284;9.160;2023-05-16T01:53:11;4.45;;;3.05;;
24206;SDS011;12351;52.284;9.160;2023-05-16T01:55:59;6.58;;;3.05;;
24206;SDS011;12351;52.284;9.160;2023-05-16T01:58:47;4.78;;;3.00;;
24206;SDS011;12351;52.284;9.160;2023-05-16T02:01:37;3.95;;;2.65;;
24206;SDS011;12351;52.284;9.160;2023-05-16T02:04:25;3.65;;;2.33;;
24206;SDS011;12351;52.284;9.160;2023-05-16T02:07:14;2.75;;;1.50;;
24206;SDS011;12351;52.284;9.160;2023-05-16T02:10:01;5.28;;;1.85;;
24206;SDS011;12351;52.284;9.160;2023-05-16T02:12:50;2.47;;;1.70;;
24206;SDS011;12351;52.284;9.160;2023-05-16T02:15:38;3.35;;;1.65;;
24206;SDS011;12351;52.284;9.160;2023-05-16T02:18:25;3.10;;;1.25;;
24206;SDS011;12351;52.284;9.160;2023-05-16T02:21:13;4.25;;;1.52;;
24206;SDS011;12351;52.284;9.160;2023-05-16T02:24:01;5.37;;;1.30;;
24206;SDS011;12351;52.284;9.160;2023-05-16T02:26:49;8.48;;;1.50;;
24206;SDS011;12351;52.284;9.160;2023-05-16T02:29:36;4.12;;;1.42;;
24206;SDS011;12351;52.284;9.160;2023-05-16T02:32:23;3.98;;;1.67;;
24206;SDS011;12351;52.284;9.160;2023-05-16T02:35:12;5.50;;;1.98;;
24206;SDS011;12351;52.284;9.160;2023-05-16T02:37:59;4.97;;;1.30;;
24206;SDS011;12351;52.284;9.160;2023-05-16T02:40:47;4.90;;;1.30;;
24206;SDS011;12351;52.284;9.160;2023-05-16T02:43:36;3.75;;;1.50;;
24206;SDS011;12351;52.284;9.160;2023-05-16T02:46:23;8.65;;;1.40;;
24206;SDS011;12351;52.284;9.160;2023-05-16T02:49:15;5.45;;;1.40;;
24206;SDS011;12351;52.284;9.160;2023-05-16T02:52:04;2.92;;;1.67;;
24206;SDS011;12351;52.284;9.160;2023-05-16T02:54:51;3.83;;;1.62;;
24206;SDS011;12351;52.284;9.160;2023-05-16T02:57:39;7.62;;;1.90;;
24206;SDS011;12351;52.284;9.160;2023-05-16T03:00:26;6.83;;;2.08;;
24206;SDS011;12351;52.284;9.160;2023-05-16T03:03:14;7.95;;;2.20;;
24206;SDS011;12351;52.284;9.160;2023-05-16T03:06:02;9.35;;;2.40;;
24206;SDS011;12351;52.284;9.160;2023-05-16T03:08:50;7.72;;;2.50;;
24206;SDS011;12351;52.284;9.160;2023-05-16T03:11:38;8.50;;;2.77;;
24206;SDS011;12351;52.284;9.160;2023-05-16T03:14:25;7.83;;;2.30;;
24206;SDS011;12351;52.284;9.160;2023-05-16T03:17:13;7.65;;;2.42;;
24206;SDS011;12351;52.284;9.160;2023-05-16T03:20:00;9.73;;;2.70;;
24206;SDS011;12351;52.284;9.160;2023-05-16T03:22:49;8.15;;;2.50;;
24206;SDS011;12351;52.284;9.160;2023-05-16T03:25:37;5.53;;;2.05;;
24206;SDS011;12351;52.284;9.160;2023-05-16T03:28:26;9.63;;;2.83;;
24206;SDS011;12351;52.284;9.160;2023-05-16T03:31:14;8.65;;;2.42;;
24206;SDS011;12351;52.284;9.160;2023-05-16T03:34:01;4.53;;;2.02;;
24206;SDS011;12351;52.284;9.160;2023-05-16T03:36:50;9.85;;;2.30;;
24206;SDS011;12351;52.284;9.160;2023-05-16T03:39:38;6.47;;;1.82;;
24206;SDS011;12351;52.284;9.160;2023-05-16T03:42:25;8.98;;;2.05;;
24206;SDS011;12351;52.284;9.160;2023-05-16T03:45:13;13.50;;;2.00;;
24206;SDS011;12351;52.284;9.160;2023-05-16T03:48:01;5.15;;;1.90;;
24206;SDS011;12351;52.284;9.160;2023-05-16T03:50:50;8.18;;;2.20;;
24206;SDS011;12351;52.284;9.160;2023-05-16T03:53:38;6.33;;;1.80;;
24206;SDS011;12351;52.284;9.160;2023-05-16T03:56:26;9.90;;;1.72;;
24206;SDS011;12351;52.284;9.160;2023-05-16T03:59:15;8.75;;;2.15;;
24206;SDS011;12351;52.284;9.160;2023-05-16T04:02:01;12.30;;;2.55;;
24206;SDS011;12351;52.284;9.160;2023-05-16T04:04:50;7.62;;;1.92;;
24206;SDS011;12351;52.284;9.160;2023-05-16T04:07:39;9.90;;;1.70;;
24206;SDS011;12351;52.284;9.160;2023-05-16T04:10:26;7.80;;;1.87;;
24206;SDS011;12351;52.284;9.160;2023-05-16T04:13:13;10.78;;;1.75;;
24206;SDS011;12351;52.284;9.160;2023-05-16T04:16:01;8.85;;;2.05;;
24206;SDS011;12351;52.284;9.160;2023-05-16T04:18:48;10.65;;;2.27;;
24206;SDS011;12351;52.284;9.160;2023-05-16T04:21:36;11.68;;;2.30;;
24206;SDS011;12351;52.284;9.160;2023-05-16T04:24:24;8.45;;;1.80;;
24206;SDS011;12351;52.284;9.160;2023-05-16T04:27:13;9.55;;;2.00;;
24206;SDS011;12351;52.284;9.160;2023-05-16T04:30:01;13.20;;;1.87;;
24206;SDS011;12351;52.284;9.160;2023-05-16T04:32:50;11.18;;;2.05;;
24206;SDS011;12351;52.284;9.160;2023-05-16T04:35:38;9.23;;;2.02;;
24206;SDS011;12351;52.284;9.160;2023-05-16T04:38:25;9.30;;;1.87;;
24206;SDS011;12351;52.284;9.160;2023-05-16T04:41:13;11.10;;;2.50;;
24206;SDS011;12351;52.284;9.160;2023-05-16T04:44:01;9.68;;;2.15;;
24206;SDS011;12351;52.284;9.160;2023-05-16T04:46:49;10.60;;;2.05;;
24206;SDS011;12351;52.284;9.160;2023-05-16T04:49:38;12.35;;;2.35;;
24206;SDS011;12351;52.284;9.160;2023-05-16T04:52:25;9.20;;;1.95;;
24206;SDS011;12351;52.284;9.160;2023-05-16T04:55:13;13.43;;;2.40;;
24206;SDS011;12351;52.284;9.160;2023-05-16T04:58:01;10.23;;;2.30;;
24206;SDS011;12351;52.284;9.160;2023-05-16T05:00:50;8.23;;;2.00;;
24206;SDS011;12351;52.284;9.160;2023-05-16T05:03:39;11.57;;;2.05;;
24206;SDS011;12351;52.284;9.160;2023-05-16T05:06:25;11.48;;;1.85;;
24206;SDS011;12351;52.284;9.160;2023-05-16T05:09:13;11.15;;;2.22;;
24206;SDS011;12351;52.284;9.160;2023-05-16T05:12:01;14.10;;;2.12;;
24206;SDS011;12351;52.284;9.160;2023-05-16T05:14:51;15.95;;;2.00;;
24206;SDS011;12351;52.284;9.160;2023-05-16T05:17:38;12.28;;;2.17;;
24206;SDS011;12351;52.284;9.160;2023-05-16T05:20:25;13.45;;;2.17;;
24206;SDS011;12351;52.284;9.160;2023-05-16T05:23:14;11.73;;;2.25;;
24206;SDS011;12351;52.284;9.160;2023-05-16T05:26:01;14.98;;;2.22;;
24206;SDS011;12351;52.284;9.160;2023-05-16T05:28:49;12.73;;;1.87;;
24206;SDS011;12351;52.284;9.160;2023-05-16T05:31:37;13.25;;;1.87;;
24206;SDS011;12351;52.284;9.160;2023-05-16T05:34:24;11.83;;;1.70;;
24206;SDS011;12351;52.284;9.160;2023-05-16T05:37:12;13.43;;;1.80;;
24206;SDS011;12351;52.284;9.160;2023-05-16T05:40:00;15.70;;;1.75;;
24206;SDS011;12351;52.284;9.160;2023-05-16T05:42:49;11.73;;;1.72;;
24206;SDS011;12351;52.284;9.160;2023-05-16T05:45:36;10.20;;;1.85;;
24206;SDS011;12351;52.284;9.160;2023-05-16T05:48:23;15.75;;;2.17;;
24206;SDS011;12351;52.284;9.160;2023-05-16T05:51:13;11.38;;;1.85;;
24206;SDS011;12351;52.284;9.160;2023-05-16T05:54:02;13.50;;;1.90;;
24206;SDS011;12351;52.284;9.160;2023-05-16T05:56:51;12.47;;;2.25;;
24206;SDS011;12351;52.284;9.160;2023-05-16T05:59:39;10.35;;;1.60;;
24206;SDS011;12351;52.284;9.160;2023-05-16T06:02:27;13.00;;;2.08;;
24206;SDS011;12351;52.284;9.160;2023-05-16T06:05:15;14.38;;;2.25;;
24206;SDS011;12351;52.284;9.160;2023-05-16T06:08:04;9.58;;;1.80;;
24206;SDS011;12351;52.284;9.160;2023-05-16T06:10:52;11.30;;;1.57;;
24206;SDS011;12351;52.284;9.160;2023-05-16T06:13:40;14.68;;;2.12;;
24206;SDS011;12351;52.284;9.160;2023-05-16T06:16:27;9.75;;;2.00;;
24206;SDS011;12351;52.284;9.160;2023-05-16T06:19:16;11.53;;;1.72;;
24206;SDS011;12351;52.284;9.160;2023-05-16T06:22:04;13.18;;;1.80;;
24206;SDS011;12351;52.284;9.160;2023-05-16T06:24:52;12.37;;;1.82;;
24206;SDS011;12351;52.284;9.160;2023-05-16T06:27:40;15.58;;;2.17;;
24206;SDS011;12351;52.284;9.160;2023-05-16T06:30:27;11.90;;;1.80;;
24206;SDS011;12351;52.284;9.160;2023-05-16T06:33:15;10.93;;;1.80;;
24206;SDS011;12351;52.284;9.160;2023-05-16T06:36:02;9.50;;;1.62;;
24206;SDS011;12351;52.284;9.160;2023-05-16T06:38:51;11.88;;;1.77;;
24206;SDS011;12351;52.284;9.160;2023-05-16T06:41:39;9.93;;;2.00;;
24206;SDS011;12351;52.284;9.160;2023-05-16T06:44:26;12.28;;;1.80;;
24206;SDS011;12351;52.284;9.160;2023-05-16T06:47:14;36.28;;;8.30;;
24206;SDS011;12351;52.284;9.160;2023-05-16T06:50:02;13.53;;;1.77;;
24206;SDS011;12351;52.284;9.160;2023-05-16T06:52:51;15.25;;;3.05;;
24206;SDS011;12351;52.284;9.160;2023-05-16T06:55:39;9.23;;;1.62;;
24206;SDS011;12351;52.284;9.160;2023-05-16T06:58:26;11.70;;;1.60;;
24206;SDS011;12351;52.284;9.160;2023-05-16T07:01:14;8.48;;;1.52;;
24206;SDS011;12351;52.284;9.160;2023-05-16T07:04:05;11.08;;;1.90;;
24206;SDS011;12351;52.284;9.160;2023-05-16T07:06:52;19.80;;;1.82;;
24206;SDS011;12351;52.284;9.160;2023-05-16T07:09:40;9.15;;;1.52;;
24206;SDS011;12351;52.284;9.160;2023-05-16T07:12:28;12.50;;;1.85;;
24206;SDS011;12351;52.284;9.160;2023-05-16T07:15:16;9.55;;;1.60;;
24206;SDS011;12351;52.284;9.160;2023-05-16T07:18:04;13.30;;;2.17;;
24206;SDS011;12351;52.284;9.160;2023-05-16T07:20:51;14.00;;;1.67;;
24206;SDS011;12351;52.284;9.160;2023-05-16T07:23:38;12.73;;;1.55;;
24206;SDS011;12351;52.284;9.160;2023-05-16T07:26:26;9.48;;;1.62;;
24206;SDS011;12351;52.284;9.160;2023-05-16T07:29:14;8.58;;;1.55;;
24206;SDS011;12351;52.284;9.160;2023-05-16T07:32:01;7.87;;;1.42;;
24206;SDS011;12351;52.284;9.160;2023-05-16T07:34:51;8.88;;;1.70;;
24206;SDS011;12351;52.284;9.160;2023-05-16T07:37:38;8.40;;;1.57;;
24206;SDS011;12351;52.284;9.160;2023-05-16T07:40:28;8.33;;;1.20;;
24206;SDS011;12351;52.284;9.160;2023-05-16T07:43:16;8.63;;;1.47;;
24206;SDS011;12351;52.284;9.160;2023-05-16T07:46:04;13.03;;;1.62;;
24206;SDS011;12351;52.284;9.160;2023-05-16T07:48:52;11.28;;;1.55;;
24206;SDS011;12351;52.284;9.160;2023-05-16T07:51:42;4.55;;;1.10;;
24206;SDS011;12351;52.284;9.160;2023-05-16T07:54:29;9.95;;;1.82;;
24206;SDS011;12351;52.284;9.160;2023-05-16T07:57:17;8.40;;;1.32;;
24206;SDS011;12351;52.284;9.160;2023-05-16T08:00:05;11.10;;;1.37;;
24206;SDS011;12351;52.284;9.160;2023-05-16T08:02:53;7.58;;;1.30;;
24206;SDS011;12351;52.284;9.160;2023-05-16T08:05:43;7.58;;;1.47;;
24206;SDS011;12351;52.284;9.160;2023-05-16T08:08:33;11.57;;;1.85;;
24206;SDS011;12351;52.284;9.160;2023-05-16T08:11:21;8.05;;;1.50;;
24206;SDS011;12351;52.284;9.160;2023-05-16T08:14:09;9.03;;;1.30;;
24206;SDS011;12351;52.284;9.160;2023-05-16T08:16:57;7.37;;;1.40;;
24206;SDS011;12351;52.284;9.160;2023-05-16T08:19:45;4.53;;;1.15;;
24206;SDS011;12351;52.284;9.160;2023-05-16T08:22:32;4.90;;;1.40;;
24206;SDS011;12351;52.284;9.160;2023-05-16T08:25:21;10.23;;;1.47;;
24206;SDS011;12351;52.284;9.160;2023-05-16T08:28:09;6.10;;;1.40;;
24206;SDS011;12351;52.284;9.160;2023-05-16T08:30:57;7.65;;;1.47;;
24206;SDS011;12351;52.284;9.160;2023-05-16T08:33:44;10.75;;;1.40;;
24206;SDS011;12351;52.284;9.160;2023-05-16T08:36:32;6.85;;;1.20;;
24206;SDS011;12351;52.284;9.160;2023-05-16T08:39:21;10.15;;;1.37;;
24206;SDS011;12351;52.284;9.160;2023-05-16T08:42:09;9.20;;;1.47;;
24206;SDS011;12351;52.284;9.160;2023-05-16T08:44:58;6.37;;;1.22;;
24206;SDS011;12351;52.284;9.160;2023-05-16T08:47:45;7.70;;;1.20;;
24206;SDS011;12351;52.284;9.160;2023-05-16T08:50:36;14.28;;;1.52;;
24206;SDS011;12351;52.284;9.160;2023-05-16T08:53:25;4.70;;;0.90;;
24206;SDS011;12351;52.284;9.160;2023-05-16T08:56:14;13.03;;;1.25;;
24206;SDS011;12351;52.284;9.160;2023-05-16T08:59:02;7.35;;;1.20;;
24206;SDS011;12351;52.284;9.160;2023-05-16T09:01:51;5.22;;;0.98;;
24206;SDS011;12351;52.284;9.160;2023-05-16T09:04:38;8.13;;;1.27;;
24206;SDS011;12351;52.284;9.160;2023-05-16T09:07:27;3.90;;;0.85;;
24206;SDS011;12351;52.284;9.160;2023-05-16T09:10:14;5.72;;;1.02;;
24206;SDS011;12351;52.284;9.160;2023-05-16T09:13:02;2.90;;;0.90;;
24206;SDS011;12351;52.284;9.160;2023-05-16T09:18:43;5.20;;;1.00;;
24206;SDS011;12351;52.284;9.160;2023-05-16T09:21:31;5.53;;;1.00;;
24206;SDS011;12351;52.284;9.160;2023-05-16T09:24:21;2.33;;;0.62;;
24206;SDS011;12351;52.284;9.160;2023-05-16T09:27:13;4.58;;;0.80;;
24206;SDS011;12351;52.284;9.160;2023-05-16T09:30:01;6.50;;;0.88;;
24206;SDS011;12351;52.284;9.160;2023-05-16T09:32:51;6.53;;;1.20;;
24206;SDS011;12351;52.284;9.160;2023-05-16T09:35:40;3.35;;;0.88;;
24206;SDS011;12351;52.284;9.160;2023-05-16T09:38:27;6.83;;;1.00;;
24206;SDS011;12351;52.284;9.160;2023-05-16T09:41:14;7.03;;;1.35;;
24206;SDS011;12351;52.284;9.160;2023-05-16T09:44:03;4.90;;;0.90;;
24206;SDS011;12351;52.284;9.160;2023-05-16T09:46:52;4.85;;;0.98;;
24206;SDS011;12351;52.284;9.160;2023-05-16T09:49:41;5.10;;;1.05;;
24206;SDS011;12351;52.284;9.160;2023-05-16T09:52:29;5.55;;;1.10;;
24206;SDS011;12351;52.284;9.160;2023-05-16T09:55:17;4.60;;;0.75;;
24206;SDS011;12351;52.284;9.160;2023-05-16T09:58:05;3.58;;;1.05;;
24206;SDS011;12351;52.284;9.160;2023-05-16T10:00:52;6.05;;;0.90;;
24206;SDS011;12351;52.284;9.160;2023-05-16T10:03:41;6.28;;;1.05;;
24206;SDS011;12351;52.284;9.160;2023-05-16T10:06:29;7.47;;;1.52;;
24206;SDS011;12351;52.284;9.160;2023-05-16T10:09:18;6.92;;;1.22;;
24206;SDS011;12351;52.284;9.160;2023-05-16T10:12:07;8.28;;;1.22;;
24206;SDS011;12351;52.284;9.160;2023-05-16T10:14:59;6.05;;;1.05;;
24206;SDS011;12351;52.284;9.160;2023-05-16T10:17:50;3.72;;;0.95;;
24206;SDS011;12351;52.284;9.160;2023-05-16T10:20:44;6.37;;;1.30;;
24206;SDS011;12351;52.284;9.160;2023-05-16T10:23:35;5.53;;;1.37;;
24206;SDS011;12351;52.284;9.160;2023-05-16T10:26:25;7.15;;;1.05;;
24206;SDS011;12351;52.284;9.160;2023-05-16T10:29:12;2.40;;;0.80;;
24206;SDS011;12351;52.284;9.160;2023-05-16T10:32:01;6.80;;;1.20;;
24206;SDS011;12351;52.284;9.160;2023-05-16T10:34:50;4.67;;;0.90;;
24206;SDS011;12351;52.284;9.160;2023-05-16T10:37:40;5.97;;;1.30;;
24206;SDS011;12351;52.284;9.160;2023-05-16T10:40:28;4.72;;;1.00;;
24206;SDS011;12351;52.284;9.160;2023-05-16T10:46:08;4.45;;;0.78;;
24206;SDS011;12351;52.284;9.160;2023-05-16T10:48:56;3.92;;;1.00;;
24206;SDS011;12351;52.284;9.160;2023-05-16T10:51:45;7.78;;;1.10;;
24206;SDS011;12351;52.284;9.160;2023-05-16T10:57:24;5.53;;;1.10;;
24206;SDS011;12351;52.284;9.160;2023-05-16T11:00:20;6.47;;;1.40;;
24206;SDS011;12351;52.284;9.160;2023-05-16T11:03:03;4.70;;;0.70;;
24206;SDS011;12351;52.284;9.160;2023-05-16T11:05:52;3.27;;;0.50;;
24206;SDS011;12351;52.284;9.160;2023-05-16T11:08:56;5.58;;;1.30;;
24206;SDS011;12351;52.284;9.160;2023-05-16T11:14:21;5.00;;;0.75;;
24206;SDS011;12351;52.284;9.160;2023-05-16T11:17:12;4.05;;;0.80;;
24206;SDS011;12351;52.284;9.160;2023-05-16T11:20:02;2.17;;;0.57;;
24206;SDS011;12351;52.284;9.160;2023-05-16T11:22:50;4.50;;;0.90;;
24206;SDS011;12351;52.284;9.160;2023-05-16T11:25:39;2.37;;;0.95;;
24206;SDS011;12351;52.284;9.160;2023-05-16T11:28:27;4.50;;;0.82;;
24206;SDS011;12351;52.284;9.160;2023-05-16T11:31:16;2.87;;;0.62;;
24206;SDS011;12351;52.284;9.160;2023-05-16T11:34:05;5.12;;;0.72;;
24206;SDS011;12351;52.284;9.160;2023-05-16T11:36:52;3.72;;;0.70;;
24206;SDS011;12351;52.284;9.160;2023-05-16T11:39:41;4.70;;;1.17;;
24206;SDS011;12351;52.284;9.160;2023-05-16T11:42:29;5.47;;;1.00;;
24206;SDS011;12351;52.284;9.160;2023-05-16T11:45:19;3.98;;;0.90;;
24206;SDS011;12351;52.284;9.160;2023-05-16T11:48:09;3.87;;;1.00;;
24206;SDS011;12351;52.284;9.160;2023-05-16T11:50:57;6.75;;;1.00;;
24206;SDS011;12351;52.284;9.160;2023-05-16T11:53:47;5.60;;;0.93;;
24206;SDS011;12351;52.284;9.160;2023-05-16T11:56:34;5.65;;;0.88;;
24206;SDS011;12351;52.284;9.160;2023-05-16T11:59:23;4.72;;;0.85;;
24206;SDS011;12351;52.284;9.160;2023-05-16T12:02:12;4.00;;;0.80;;
24206;SDS011;12351;52.284;9.160;2023-05-16T12:05:04;3.58;;;0.60;;
24206;SDS011;12351;52.284;9.160;2023-05-16T12:10:38;3.75;;;1.17;;
24206;SDS011;12351;52.284;9.160;2023-05-16T12:13:26;1.57;;;0.70;;
24206;SDS011;12351;52.284;9.160;2023-05-16T12:16:14;3.90;;;0.95;;
24206;SDS011;12351;52.284;9.160;2023-05-16T12:19:02;5.33;;;1.10;;
24206;SDS011;12351;52.284;9.160;2023-05-16T12:21:54;6.85;;;0.93;;
24206;SDS011;12351;52.284;9.160;2023-05-16T12:24:41;2.72;;;0.70;;
24206;SDS011;12351;52.284;9.160;2023-05-16T12:27:29;3.20;;;0.85;;
24206;SDS011;12351;52.284;9.160;2023-05-16T12:30:18;5.92;;;1.00;;
24206;SDS011;12351;52.284;9.160;2023-05-16T12:33:09;3.98;;;0.90;;
24206;SDS011;12351;52.284;9.160;2023-05-16T12:35:58;5.50;;;1.25;;
24206;SDS011;12351;52.284;9.160;2023-05-16T12:38:48;5.17;;;1.00;;
24206;SDS011;12351;52.284;9.160;2023-05-16T12:41:39;6.72;;;1.10;;
24206;SDS011;12351;52.284;9.160;2023-05-16T12:44:28;4.72;;;1.20;;
24206;SDS011;12351;52.284;9.160;2023-05-16T12:47:18;5.80;;;1.22;;
24206;SDS011;12351;52.284;9.160;2023-05-16T12:52:58;5.42;;;1.20;;
24206;SDS011;12351;52.284;9.160;2023-05-16T12:55:48;6.53;;;1.10;;
24206;SDS011;12351;52.284;9.160;2023-05-16T12:58:35;8.33;;;1.20;;
24206;SDS011;12351;52.284;9.160;2023-05-16T13:01:24;5.33;;;1.35;;
24206;SDS011;12351;52.284;9.160;2023-05-16T13:04:12;3.17;;;0.72;;
24206;SDS011;12351;52.284;9.160;2023-05-16T13:07:01;3.20;;;0.90;;
24206;SDS011;12351;52.284;9.160;2023-05-16T13:09:50;6.97;;;0.80;;
24206;SDS011;12351;52.284;9.160;2023-05-16T13:12:38;3.05;;;0.80;;
24206;SDS011;12351;52.284;9.160;2023-05-16T13:15:27;5.85;;;0.70;;
24206;SDS011;12351;52.284;9.160;2023-05-16T13:18:14;3.75;;;0.65;;
24206;SDS011;12351;52.284;9.160;2023-05-16T13:21:02;3.75;;;1.00;;
24206;SDS011;12351;52.284;9.160;2023-05-16T13:23:51;4.22;;;0.70;;
24206;SDS011;12351;52.284;9.160;2023-05-16T13:26:38;3.60;;;0.85;;
24206;SDS011;12351;52.284;9.160;2023-05-16T13:29:26;3.25;;;0.70;;
24206;SDS011;12351;52.284;9.160;2023-05-16T13:32:15;4.37;;;0.90;;
24206;SDS011;12351;52.284;9.160;2023-05-16T13:35:02;3.75;;;0.70;;
24206;SDS011;12351;52.284;9.160;2023-05-16T13:37:51;2.37;;;0.60;;
24206;SDS011;12351;52.284;9.160;2023-05-16T13:40:38;2.58;;;0.40;;
24206;SDS011;12351;52.284;9.160;2023-05-16T13:43:27;0.95;;;0.30;;
24206;SDS011;12351;52.284;9.160;2023-05-16T13:46:15;2.65;;;0.50;;
24206;SDS011;12351;52.284;9.160;2023-05-16T13:49:03;2.98;;;0.60;;
24206;SDS011;12351;52.284;9.160;2023-05-16T13:51:52;1.30;;;0.60;;
24206;SDS011;12351;52.284;9.160;2023-05-16T13:54:39;1.25;;;0.42;;
24206;SDS011;12351;52.284;9.160;2023-05-16T13:57:27;2.67;;;0.70;;
24206;SDS011;12351;52.284;9.160;2023-05-16T14:00:15;1.00;;;0.40;;
24206;SDS011;12351;52.284;9.160;2023-05-16T14:03:04;2.35;;;0.78;;
24206;SDS011;12351;52.284;9.160;2023-05-16T14:05:52;0.95;;;0.33;;
24206;SDS011;12351;52.284;9.160;2023-05-16T14:08:40;3.12;;;0.80;;
24206;SDS011;12351;52.284;9.160;2023-05-16T14:11:28;3.65;;;0.80;;
24206;SDS011;12351;52.284;9.160;2023-05-16T14:14:16;4.45;;;0.75;;
24206;SDS011;12351;52.284;9.160;2023-05-16T14:17:03;1.47;;;0.50;;
24206;SDS011;12351;52.284;9.160;2023-05-16T14:19:52;5.37;;;0.72;;
24206;SDS011;12351;52.284;9.160;2023-05-16T14:22:40;3.65;;;0.68;;
24206;SDS011;12351;52.284;9.160;2023-05-16T14:25:28;2.35;;;0.70;;
24206;SDS011;12351;52.284;9.160;2023-05-16T14:28:17;2.08;;;0.68;;
24206;SDS011;12351;52.284;9.160;2023-05-16T14:31:04;5.15;;;1.00;;
24206;SDS011;12351;52.284;9.160;2023-05-16T14:33:53;3.95;;;1.02;;
24206;SDS011;12351;52.284;9.160;2023-05-16T14:36:40;2.45;;;0.68;;
24206;SDS011;12351;52.284;9.160;2023-05-16T14:39:28;5.17;;;0.90;;
24206;SDS011;12351;52.284;9.160;2023-05-16T14:42:16;4.08;;;0.90;;
24206;SDS011;12351;52.284;9.160;2023-05-16T14:45:04;5.70;;;0.70;;
24206;SDS011;12351;52.284;9.160;2023-05-16T14:47:52;4.42;;;0.70;;
24206;SDS011;12351;52.284;9.160;2023-05-16T14:50:41;2.87;;;0.78;;
24206;SDS011;12351;52.284;9.160;2023-05-16T14:53:28;3.45;;;0.72;;
24206;SDS011;12351;52.284;9.160;2023-05-16T14:56:16;2.10;;;0.60;;
24206;SDS011;12351;52.284;9.160;2023-05-16T14:59:04;2.90;;;0.70;;
24206;SDS011;12351;52.284;9.160;2023-05-16T15:01:51;3.22;;;0.90;;
24206;SDS011;12351;52.284;9.160;2023-05-16T15:04:39;2.77;;;0.68;;
24206;SDS011;12351;52.284;9.160;2023-05-16T15:07:26;4.37;;;0.50;;
24206;SDS011;12351;52.284;9.160;2023-05-16T15:10:14;2.90;;;0.75;;
24206;SDS011;12351;52.284;9.160;2023-05-16T15:13:02;4.53;;;0.80;;
24206;SDS011;12351;52.284;9.160;2023-05-16T15:15:50;3.22;;;0.60;;
24206;SDS011;12351;52.284;9.160;2023-05-16T15:18:37;2.22;;;0.65;;
24206;SDS011;12351;52.284;9.160;2023-05-16T15:21:26;1.60;;;0.60;;
24206;SDS011;12351;52.284;9.160;2023-05-16T15:24:14;3.77;;;0.88;;
24206;SDS011;12351;52.284;9.160;2023-05-16T15:27:02;4.55;;;0.70;;
24206;SDS011;12351;52.284;9.160;2023-05-16T15:29:49;2.95;;;0.50;;
24206;SDS011;12351;52.284;9.160;2023-05-16T15:32:37;4.05;;;0.78;;
24206;SDS011;12351;52.284;9.160;2023-05-16T15:35:25;5.65;;;0.80;;
24206;SDS011;12351;52.284;9.160;2023-05-16T15:38:14;4.30;;;0.88;;
24206;SDS011;12351;52.284;9.160;2023-05-16T15:41:02;2.90;;;1.10;;
24206;SDS011;12351;52.284;9.160;2023-05-16T15:43:50;4.40;;;0.75;;
24206;SDS011;12351;52.284;9.160;2023-05-16T15:46:38;3.92;;;0.80;;
24206;SDS011;12351;52.284;9.160;2023-05-16T15:49:27;4.78;;;0.80;;
24206;SDS011;12351;52.284;9.160;2023-05-16T15:52:15;3.25;;;1.10;;
24206;SDS011;12351;52.284;9.160;2023-05-16T15:55:02;2.37;;;0.57;;
24206;SDS011;12351;52.284;9.160;2023-05-16T15:57:50;5.72;;;0.80;;
24206;SDS011;12351;52.284;9.160;2023-05-16T16:00:39;2.62;;;0.80;;
24206;SDS011;12351;52.284;9.160;2023-05-16T16:03:28;4.65;;;0.75;;
24206;SDS011;12351;52.284;9.160;2023-05-16T16:06:16;3.60;;;0.80;;
24206;SDS011;12351;52.284;9.160;2023-05-16T16:09:04;5.17;;;0.90;;
24206;SDS011;12351;52.284;9.160;2023-05-16T16:11:51;2.92;;;0.82;;
24206;SDS011;12351;52.284;9.160;2023-05-16T16:14:40;3.47;;;1.17;;
24206;SDS011;12351;52.284;9.160;2023-05-16T16:17:28;6.03;;;1.02;;
24206;SDS011;12351;52.284;9.160;2023-05-16T16:20:16;4.70;;;0.95;;
24206;SDS011;12351;52.284;9.160;2023-05-16T16:23:04;6.50;;;0.90;;
24206;SDS011;12351;52.284;9.160;2023-05-16T16:25:53;4.60;;;1.07;;
24206;SDS011;12351;52.284;9.160;2023-05-16T16:28:41;3.45;;;0.90;;
24206;SDS011;12351;52.284;9.160;2023-05-16T16:31:29;4.12;;;0.88;;
24206;SDS011;12351;52.284;9.160;2023-05-16T16:34:17;5.28;;;0.85;;
24206;SDS011;12351;52.284;9.160;2023-05-16T16:37:05;5.40;;;1.10;;
24206;SDS011;12351;52.284;9.160;2023-05-16T16:39:55;2.83;;;0.82;;
24206;SDS011;12351;52.284;9.160;2023-05-16T16:42:42;6.90;;;1.10;;
24206;SDS011;12351;52.284;9.160;2023-05-16T16:45:30;4.75;;;0.98;;
24206;SDS011;12351;52.284;9.160;2023-05-16T16:48:19;3.55;;;0.93;;
24206;SDS011;12351;52.284;9.160;2023-05-16T16:51:07;3.22;;;1.05;;
24206;SDS011;12351;52.284;9.160;2023-05-16T16:53:55;2.55;;;0.88;;
24206;SDS011;12351;52.284;9.160;2023-05-16T16:56:43;4.83;;;1.20;;
24206;SDS011;12351;52.284;9.160;2023-05-16T16:59:33;8.63;;;1.35;;
24206;SDS011;12351;52.284;9.160;2023-05-16T17:02:20;5.15;;;1.20;;
24206;SDS011;12351;52.284;9.160;2023-05-16T17:05:09;4.25;;;1.25;;
24206;SDS011;12351;52.284;9.160;2023-05-16T17:07:57;8.15;;;1.15;;
24206;SDS011;12351;52.284;9.160;2023-05-16T17:10:44;5.70;;;1.60;;
24206;SDS011;12351;52.284;9.160;2023-05-16T17:13:32;6.87;;;1.70;;
24206;SDS011;12351;52.284;9.160;2023-05-16T17:16:22;7.28;;;1.72;;
24206;SDS011;12351;52.284;9.160;2023-05-16T17:19:11;6.37;;;1.82;;
24206;SDS011;12351;52.284;9.160;2023-05-16T17:21:58;5.90;;;1.62;;
24206;SDS011;12351;52.284;9.160;2023-05-16T17:24:47;7.80;;;1.70;;
24206;SDS011;12351;52.284;9.160;2023-05-16T17:27:34;7.03;;;2.12;;
24206;SDS011;12351;52.284;9.160;2023-05-16T17:30:22;4.78;;;2.00;;
24206;SDS011;12351;52.284;9.160;2023-05-16T17:33:11;7.53;;;2.08;;